Time;durP1;ratioP1;P1;durP2;ratioP2;P2;SDS_P1;SDS_P2;PMS_P1;PMS_P2;Temp;Humidity;BMP_temperature;BMP_pressure;BME280_temperature;BME280_humidity;BME280_pressure;Samples;Min_cycle;Max_cycle;Signal;HPM_P1;HPM_P2
2021/09/10 00:02:10;;;;;;;11.13;9.10;;;19.80;64.00;;;;;;5033818;28;20883;-75
2021/09/10 00:04:37;;;;;;;9.47;8.57;;;19.80;63.70;;;;;;5033967;28;20989;-75
2021/09/10 00:07:04;;;;;;;14.13;10.00;;;19.90;63.60;;;;;;5033805;28;20476;-75
2021/09/10 00:09:31;;;;;;;10.23;9.33;;;19.90;63.70;;;;;;5033823;28;20539;-76
2021/09/10 00:11:58;;;;;;;10.10;8.93;;;19.90;64.30;;;;;;5033933;28;20456;-76
2021/09/10 00:14:25;;;;;;;10.23;9.17;;;19.90;65.20;;;;;;5033680;28;20520;-76
2021/09/10 00:16:53;;;;;;;9.67;8.77;;;19.90;66.40;;;;;;5033685;28;20537;-76
2021/09/10 00:19:20;;;;;;;10.73;9.73;;;19.80;67.60;;;;;;5034577;28;20484;-76
2021/09/10 00:21:47;;;;;;;10.03;9.13;;;19.80;67.80;;;;;;5035391;28;20577;-76
2021/09/10 00:24:14;;;;;;;10.03;9.13;;;19.80;67.60;;;;;;5033872;28;20906;-77
2021/09/10 00:26:41;;;;;;;10.90;9.90;;;19.90;67.70;;;;;;5036036;28;20468;-76
2021/09/10 00:29:07;;;;;;;11.23;10.07;;;19.90;67.70;;;;;;5035135;28;20488;-76
2021/09/10 00:31:34;;;;;;;10.70;9.63;;;19.80;67.60;;;;;;5033961;28;20482;-76
2021/09/10 00:34:03;;;;;;;9.83;8.97;;;19.80;67.60;;;;;;5033965;28;20940;-76
2021/09/10 00:36:30;;;;;;;9.97;8.97;;;19.90;68.40;;;;;;5033673;28;20467;-76
2021/09/10 00:38:57;;;;;;;9.90;8.93;;;19.90;67.70;;;;;;5033768;28;20524;-76
2021/09/10 00:41:24;;;;;;;9.70;8.87;;;19.90;67.10;;;;;;5034383;28;20938;-76
2021/09/10 00:43:51;;;;;;;11.53;9.60;;;19.90;67.00;;;;;;5034905;28;20458;-76
2021/09/10 00:46:17;;;;;;;10.70;9.37;;;19.90;67.40;;;;;;5046644;28;20448;-77
2021/09/10 00:48:45;;;;;;;8.57;7.77;;;19.80;67.60;;;;;;5057107;28;20469;-77
2021/09/10 00:51:13;;;;;;;10.43;9.40;;;19.90;67.30;;;;;;5057088;28;20442;-76
2021/09/10 00:53:40;;;;;;;10.03;8.97;;;19.90;66.70;;;;;;5052780;28;20838;-76
2021/09/10 00:56:07;;;;;;;10.07;9.03;;;19.90;66.60;;;;;;5037294;28;20432;-76
2021/09/10 00:58:34;;;;;;;10.60;9.70;;;19.80;67.60;;;;;;5035492;28;20458;-76
2021/09/10 01:01:01;;;;;;;11.20;10.20;;;19.80;67.60;;;;;;5032711;28;20905;-76
2021/09/10 01:03:29;;;;;;;11.57;10.40;;;19.70;67.50;;;;;;5032959;28;20895;-76
2021/09/10 01:05:57;;;;;;;13.57;9.67;;;19.60;67.50;;;;;;5033016;28;20716;-76
2021/09/10 01:08:29;;;;;;;11.60;9.03;;;19.50;69.10;;;;;;5032858;28;20847;-76
2021/09/10 01:10:56;;;;;;;10.43;9.53;;;19.50;69.30;;;;;;5032863;28;20458;-76
2021/09/10 01:13:24;;;;;;;10.93;9.93;;;19.50;69.50;;;;;;5034521;28;20941;-75
2021/09/10 01:15:51;;;;;;;11.70;10.00;;;19.50;69.40;;;;;;5034592;28;20465;-76
2021/09/10 01:18:18;;;;;;;11.40;10.30;;;19.40;69.80;;;;;;5035190;28;20581;-77
2021/09/10 01:20:48;;;;;;;10.87;9.87;;;19.40;70.30;;;;;;5033924;28;20490;-75
2021/09/10 01:23:15;;;;;;;10.47;9.57;;;19.30;70.80;;;;;;5034546;28;20502;-75
2021/09/10 01:25:44;;;;;;;10.63;9.63;;;19.30;71.00;;;;;;5037132;28;20424;-75
2021/09/10 01:28:11;;;;;;;10.63;9.63;;;19.30;71.00;;;;;;5041740;28;20477;-75
2021/09/10 01:30:38;;;;;;;10.63;9.63;;;19.30;71.40;;;;;;5041300;28;20515;-76
2021/09/10 01:33:07;;;;;;;10.40;9.30;;;19.30;71.70;;;;;;5042640;28;20503;-75
2021/09/10 01:35:34;;;;;;;11.40;10.27;;;19.20;71.80;;;;;;5041851;28;20431;-75
2021/09/10 01:38:01;;;;;;;10.67;9.57;;;19.30;72.00;;;;;;5043726;28;20508;-75
2021/09/10 01:40:29;;;;;;;10.10;9.20;;;19.30;71.70;;;;;;5047903;28;20548;-75
2021/09/10 01:42:57;;;;;;;9.90;9.03;;;19.30;71.60;;;;;;5058252;28;20507;-76
2021/09/10 01:45:25;;;;;;;13.60;10.57;;;19.30;71.80;;;;;;5062602;28;20442;-76
2021/09/10 01:47:52;;;;;;;11.73;9.67;;;19.20;72.00;;;;;;5059278;28;20424;-74
2021/09/10 01:50:21;;;;;;;11.10;10.00;;;19.30;72.00;;;;;;5052169;28;20488;-74
2021/09/10 01:52:48;;;;;;;11.77;10.77;;;19.20;72.20;;;;;;5047673;28;20420;-74
2021/09/10 01:55:16;;;;;;;11.33;10.27;;;19.20;72.30;;;;;;5042482;28;20552;-76
2021/09/10 01:57:47;;;;;;;11.60;10.50;;;19.20;72.50;;;;;;5053251;28;20461;-75
2021/09/10 02:00:16;;;;;;;11.00;10.00;;;19.10;72.80;;;;;;5051389;28;20785;-75
2021/09/10 02:02:43;;;;;;;10.43;9.47;;;19.10;72.80;;;;;;5045195;28;20460;-75
2021/09/10 02:05:11;;;;;;;9.33;8.53;;;19.10;73.20;;;;;;5045605;28;20569;-75
2021/09/10 02:07:39;;;;;;;11.17;10.07;;;19.10;72.90;;;;;;5045535;28;20995;-75
2021/09/10 02:10:08;;;;;;;10.37;9.37;;;19.00;72.80;;;;;;5042511;28;20867;-75
2021/09/10 02:12:35;;;;;;;11.17;10.07;;;19.00;73.40;;;;;;5039346;28;20495;-75
2021/09/10 02:15:02;;;;;;;11.47;9.77;;;19.00;73.50;;;;;;5038950;28;20519;-75
2021/09/10 02:17:30;;;;;;;11.27;10.10;;;18.90;73.60;;;;;;5039052;28;21019;-75
2021/09/10 02:19:57;;;;;;;11.27;10.27;;;18.90;73.80;;;;;;5038655;28;21014;-75
2021/09/10 02:22:24;;;;;;;11.47;10.20;;;18.90;74.20;;;;;;5039582;28;20577;-75
2021/09/10 02:24:51;;;;;;;10.80;9.90;;;18.90;75.10;;;;;;5039567;28;20549;-75
2021/09/10 02:27:18;;;;;;;11.63;9.77;;;18.90;75.70;;;;;;5039603;28;20468;-75
2021/09/10 02:29:45;;;;;;;10.80;9.83;;;18.90;75.70;;;;;;5039253;28;20563;-75
2021/09/10 02:32:12;;;;;;;11.30;10.30;;;18.90;76.40;;;;;;5050456;28;20449;-75
2021/09/10 02:34:40;;;;;;;11.37;10.27;;;18.90;75.70;;;;;;5045893;28;20464;-75
2021/09/10 02:37:07;;;;;;;10.47;9.57;;;18.90;75.70;;;;;;5049503;28;20471;-75
2021/09/10 02:39:34;;;;;;;11.07;10.00;;;18.90;75.20;;;;;;5048037;28;20799;-75
2021/09/10 02:42:01;;;;;;;10.80;9.80;;;18.90;75.70;;;;;;5048236;28;20492;-74
2021/09/10 02:44:28;;;;;;;11.20;10.10;;;18.90;75.70;;;;;;5050449;28;20481;-75
2021/09/10 02:46:55;;;;;;;11.03;9.90;;;18.80;75.60;;;;;;5038234;28;20432;-75
2021/09/10 02:49:22;;;;;;;11.63;10.60;;;18.80;76.30;;;;;;5037411;28;20483;-75
2021/09/10 02:51:50;;;;;;;11.30;10.30;;;18.90;75.70;;;;;;5037636;28;20482;-75
2021/09/10 02:54:17;;;;;;;11.10;10.10;;;18.80;75.60;;;;;;5037763;28;20448;-75
2021/09/10 02:56:44;;;;;;;10.60;9.60;;;18.80;75.60;;;;;;5035850;28;20460;-75
2021/09/10 02:59:11;;;;;;;11.93;9.03;;;18.80;75.60;;;;;;5036066;28;20453;-75
2021/09/10 03:01:43;;;;;;;10.10;8.70;;;18.80;75.60;;;;;;5035903;28;20527;-75
2021/09/10 03:04:10;;;;;;;10.37;9.47;;;18.80;75.60;;;;;;5036034;28;20968;-75
2021/09/10 03:06:37;;;;;;;15.60;9.80;;;18.70;75.50;;;;;;5035563;28;20449;-74
2021/09/10 03:09:06;;;;;;;11.23;10.17;;;18.80;75.60;;;;;;5036219;28;20477;-75
2021/09/10 03:11:33;;;;;;;9.93;9.00;;;18.80;75.60;;;;;;5035544;28;20945;-75
2021/09/10 03:14:00;;;;;;;11.00;9.87;;;18.70;75.50;;;;;;5035038;28;20516;-75
2021/09/10 03:16:27;;;;;;;10.43;9.43;;;18.80;75.60;;;;;;5034802;28;20520;-75
2021/09/10 03:18:53;;;;;;;10.87;9.87;;;18.80;75.60;;;;;;5035365;28;20504;-75
2021/09/10 03:21:20;;;;;;;10.77;9.03;;;18.70;76.00;;;;;;5036920;28;20520;-75
2021/09/10 03:23:47;;;;;;;10.20;9.20;;;18.70;75.50;;;;;;5035497;28;20511;-75
2021/09/10 03:26:15;;;;;;;11.13;10.10;;;18.80;76.20;;;;;;5036648;28;20485;-75
2021/09/10 03:28:42;;;;;;;11.53;10.20;;;18.80;76.10;;;;;;5038696;28;20521;-75
2021/09/10 03:31:09;;;;;;;11.30;10.30;;;18.80;76.80;;;;;;5037493;28;20510;-76
2021/09/10 03:33:36;;;;;;;10.40;9.50;;;18.70;76.50;;;;;;5035869;28;20932;-76
2021/09/10 03:36:03;;;;;;;11.10;10.10;;;18.80;75.90;;;;;;5035326;28;20520;-75
2021/09/10 03:38:30;;;;;;;10.50;9.53;;;18.70;75.50;;;;;;5035477;28;20458;-76
2021/09/10 03:40:57;;;;;;;11.20;10.10;;;18.80;75.60;;;;;;5035609;28;20545;-76
2021/09/10 03:43:25;;;;;;;10.97;10.07;;;18.80;75.60;;;;;;5034845;28;20492;-75
2021/09/10 03:45:52;;;;;;;11.57;10.47;;;18.80;77.00;;;;;;5034115;28;20541;-75
2021/09/10 03:48:19;;;;;;;11.43;10.33;;;18.80;77.40;;;;;;5034379;28;20841;-75
2021/09/10 03:50:46;;;;;;;12.57;11.10;;;18.80;79.20;;;;;;5034916;28;20437;-75
2021/09/10 03:53:13;;;;;;;11.20;10.13;;;18.80;79.10;;;;;;5035806;28;20464;-75
2021/09/10 03:55:40;;;;;;;11.00;9.90;;;18.80;79.00;;;;;;5035600;28;20458;-75
2021/09/10 03:58:07;;;;;;;11.10;10.00;;;18.80;79.00;;;;;;5046933;28;20535;-76
2021/09/10 04:00:35;;;;;;;10.87;9.90;;;18.80;78.70;;;;;;5048258;28;20457;-76
2021/09/10 04:03:03;;;;;;;11.07;10.07;;;18.70;78.80;;;;;;5038796;28;20929;-76
2021/09/10 04:05:31;;;;;;;11.37;10.37;;;18.70;79.40;;;;;;5045432;28;20453;-77
2021/09/10 04:07:58;;;;;;;11.87;10.80;;;18.70;79.50;;;;;;5046260;28;20475;-75
2021/09/10 04:10:25;;;;;;;12.37;10.90;;;18.60;79.60;;;;;;5044156;28;20455;-75
2021/09/10 04:12:53;;;;;;;11.10;10.10;;;18.50;80.10;;;;;;5041686;28;20484;-75
2021/09/10 04:15:20;;;;;;;12.07;10.87;;;18.50;81.00;;;;;;5035816;28;20436;-76
2021/09/10 04:17:48;;;;;;;11.30;10.30;;;18.40;81.80;;;;;;5035381;28;20446;-75
2021/09/10 04:20:15;;;;;;;11.93;10.83;;;18.30;82.60;;;;;;5034438;28;20427;-75
2021/09/10 04:22:43;;;;;;;12.27;11.07;;;18.30;83.80;;;;;;5035638;28;20578;-76
2021/09/10 04:25:11;;;;;;;12.20;10.90;;;18.20;83.80;;;;;;5034541;28;20980;-75
2021/09/10 04:27:38;;;;;;;12.20;11.10;;;18.10;84.30;;;;;;5034427;28;20524;-74
2021/09/10 04:30:06;;;;;;;11.83;10.83;;;18.00;85.30;;;;;;5083100;22;20937;-82
2021/09/10 04:32:33;;;;;;;12.77;11.43;;;18.00;87.30;;;;;;5055064;28;20476;-80
2021/09/10 04:35:02;;;;;;;12.30;11.10;;;17.90;87.40;;;;;;5043621;28;20459;-79
2021/09/10 04:37:29;;;;;;;11.07;10.00;;;17.90;87.90;;;;;;5044725;28;20478;-80
2021/09/10 04:39:56;;;;;;;12.17;11.07;;;17.90;88.10;;;;;;5044504;28;20536;-80
2021/09/10 04:42:23;;;;;;;12.00;10.90;;;17.80;87.70;;;;;;5046017;28;20421;-80
2021/09/10 04:44:50;;;;;;;11.50;10.47;;;17.80;88.80;;;;;;5053473;28;20460;-81
2021/09/10 04:47:17;;;;;;;11.27;10.27;;;17.70;88.60;;;;;;5052120;28;20479;-80
2021/09/10 04:49:44;;;;;;;13.10;11.80;;;17.70;88.90;;;;;;5052354;28;20435;-80
2021/09/10 04:52:12;;;;;;;11.90;10.80;;;17.60;89.80;;;;;;5047864;28;20434;-80
2021/09/10 04:54:39;;;;;;;11.97;10.80;;;17.50;90.60;;;;;;5051811;28;20429;-79
2021/09/10 04:57:06;;;;;;;12.07;10.90;;;17.50;90.60;;;;;;5045957;28;20469;-80
2021/09/10 04:59:33;;;;;;;11.43;10.40;;;17.50;90.70;;;;;;5052348;28;20425;-80
2021/09/10 05:02:00;;;;;;;12.03;10.80;;;17.50;90.60;;;;;;5053704;28;20476;-80
2021/09/10 05:04:27;;;;;;;11.63;10.43;;;17.60;90.70;;;;;;5055369;28;20501;-80
2021/09/10 05:06:54;;;;;;;12.17;11.07;;;17.60;90.70;;;;;;5055187;28;20439;-79
2021/09/10 05:09:23;;;;;;;11.63;10.53;;;17.60;90.60;;;;;;5052659;28;20452;-80
2021/09/10 05:11:50;;;;;;;12.17;11.00;;;17.70;90.70;;;;;;5052531;28;20449;-80
2021/09/10 05:14:17;;;;;;;11.77;10.57;;;17.70;90.40;;;;;;5048334;28;20515;-80
2021/09/10 05:16:43;;;;;;;11.83;10.73;;;17.70;90.40;;;;;;5046365;28;20478;-79
2021/09/10 05:19:12;;;;;;;11.07;9.97;;;17.80;90.30;;;;;;5042420;28;20489;-80
2021/09/10 05:21:39;;;;;;;13.40;11.07;;;17.80;90.60;;;;;;5043472;28;20449;-79
2021/09/10 05:24:07;;;;;;;11.40;10.40;;;17.80;90.50;;;;;;5046519;28;20497;-80
2021/09/10 05:26:35;;;;;;;11.20;10.10;;;17.90;90.10;;;;;;5046573;28;20458;-80
2021/09/10 05:29:02;;;;;;;10.00;9.10;;;18.00;89.80;;;;;;5048296;28;20682;-80
2021/09/10 05:31:29;;;;;;;14.50;10.60;;;18.20;88.90;;;;;;5037397;28;20461;-80
2021/09/10 05:33:56;;;;;;;14.03;9.90;;;18.40;86.70;;;;;;5040321;28;20472;-79
2021/09/10 05:36:23;;;;;;;10.40;9.40;;;18.60;84.10;;;;;;5035547;28;20433;-80
2021/09/10 05:38:50;;;;;;;13.67;9.80;;;18.80;81.10;;;;;;5035776;28;20580;-80
2021/09/10 05:41:17;;;;;;;10.53;9.40;;;18.90;78.60;;;;;;5039294;28;20480;-80
2021/09/10 05:43:46;;;;;;;9.83;8.70;;;18.90;78.10;;;;;;5039006;28;20534;-80
2021/09/10 05:46:13;;;;;;;10.67;9.67;;;19.00;77.20;;;;;;5038303;28;20471;-80
2021/09/10 05:48:40;;;;;;;12.30;9.50;;;19.10;76.40;;;;;;5042390;28;20516;-81
2021/09/10 05:51:08;;;;;;;11.23;10.23;;;19.10;75.90;;;;;;5039550;28;20462;-80
2021/09/10 05:53:35;;;;;;;10.73;9.63;;;19.30;75.90;;;;;;5041344;28;20434;-81
2021/09/10 05:56:02;;;;;;;11.20;9.90;;;19.30;74.10;;;;;;5039349;28;20519;-79
2021/09/10 05:58:29;;;;;;;10.53;9.63;;;19.40;73.60;;;;;;5039469;28;20552;-80
2021/09/10 06:00:57;;;;;;;10.50;7.93;;;19.50;71.90;;;;;;5038397;28;20472;-80
2021/09/10 06:03:24;;;;;;;8.97;8.07;;;19.60;67.40;;;;;;5037111;28;20477;-81
2021/09/10 06:05:51;;;;;;;9.50;8.53;;;19.70;66.70;;;;;;5043687;28;20484;-80
2021/09/10 06:08:18;;;;;;;9.60;8.60;;;19.80;65.00;;;;;;5049731;28;20474;-79
2021/09/10 06:10:46;;;;;;;9.70;8.17;;;20.00;64.10;;;;;;5057659;28;20446;-81
2021/09/10 06:13:13;;;;;;;8.70;7.90;;;20.20;62.40;;;;;;5059935;28;20444;-81
2021/09/10 06:15:40;;;;;;;9.70;7.60;;;20.30;60.80;;;;;;5060965;28;20449;-81
2021/09/10 06:18:09;;;;;;;7.93;7.33;;;20.40;60.20;;;;;;5060454;28;20430;-80
2021/09/10 06:20:36;;;;;;;8.80;7.90;;;20.60;59.90;;;;;;5050551;28;20489;-79
2021/09/10 06:23:03;;;;;;;11.00;8.60;;;20.70;59.30;;;;;;5045989;28;20487;-79
2021/09/10 06:25:30;;;;;;;9.50;8.17;;;20.90;59.40;;;;;;5047650;28;20484;-81
2021/09/10 06:27:57;;;;;;;9.10;8.30;;;20.90;59.40;;;;;;5057964;28;20518;-79
2021/09/10 06:30:24;;;;;;;10.10;7.80;;;20.90;59.40;;;;;;5058237;28;20422;-76
2021/09/10 06:32:51;;;;;;;9.07;8.03;;;20.80;59.30;;;;;;5052998;28;20954;-79
2021/09/10 06:35:20;;;;;;;11.27;8.03;;;20.80;59.30;;;;;;5037013;28;20456;-80
2021/09/10 06:37:47;;;;;;;8.97;7.97;;;20.80;59.30;;;;;;5046618;28;20485;-78
2021/09/10 06:40:15;;;;;;;8.90;8.10;;;20.90;59.40;;;;;;5040752;28;20577;-79
2021/09/10 06:42:43;;;;;;;9.73;7.93;;;20.90;59.40;;;;;;5047354;28;20482;-79
2021/09/10 06:45:11;;;;;;;9.20;8.23;;;20.90;59.40;;;;;;5048696;28;20494;-78
2021/09/10 06:47:38;;;;;;;10.00;8.30;;;20.90;58.20;;;;;;5045329;28;20450;-79
2021/09/10 06:50:09;;;;;;;10.03;8.40;;;20.90;58.40;;;;;;5045808;28;20458;-78
2021/09/10 06:52:38;;;;;;;8.40;7.70;;;20.90;57.80;;;;;;5033372;28;20466;-79
2021/09/10 06:55:06;;;;;;;9.03;8.23;;;20.90;58.00;;;;;;5047252;28;20422;-79
2021/09/10 06:57:33;;;;;;;9.60;8.60;;;20.80;57.80;;;;;;5048023;28;20498;-79
2021/09/10 07:00:00;;;;;;;20.30;10.40;;;20.80;57.80;;;;;;5043757;28;20497;-79
2021/09/10 07:02:28;;;;;;;11.33;8.90;;;20.80;57.80;;;;;;5044549;28;20513;-80
2021/09/10 07:04:55;;;;;;;10.70;9.13;;;20.90;57.10;;;;;;5048117;28;20491;-79
2021/09/10 07:07:22;;;;;;;10.80;9.13;;;21.00;56.80;;;;;;5048656;28;20553;-80
2021/09/10 07:09:50;;;;;;;11.20;9.37;;;21.20;56.30;;;;;;5056300;28;20460;-79
2021/09/10 07:12:18;;;;;;;9.30;8.53;;;21.40;55.40;;;;;;5051541;28;20467;-79
2021/09/10 07:14:45;;;;;;;10.10;8.87;;;21.50;54.20;;;;;;5046410;28;20456;-79
2021/09/10 07:17:12;;;;;;;10.70;8.50;;;21.60;54.10;;;;;;5048236;28;20821;-80
2021/09/10 07:19:39;;;;;;;8.70;7.90;;;21.70;53.50;;;;;;5049304;28;20478;-80
2021/09/10 07:22:06;;;;;;;9.47;8.23;;;21.70;53.50;;;;;;5045671;28;20510;-79
2021/09/10 07:24:33;;;;;;;8.60;7.90;;;21.90;53.10;;;;;;5036826;28;20489;-79
2021/09/10 07:27:01;;;;;;;8.63;7.83;;;22.00;52.80;;;;;;5033748;28;20470;-81
2021/09/10 07:29:28;;;;;;;9.17;8.23;;;22.10;52.90;;;;;;5038705;28;20469;-79
2021/09/10 07:31:56;;;;;;;9.10;8.40;;;22.20;52.30;;;;;;5047152;28;20457;-79
2021/09/10 07:34:23;;;;;;;8.60;7.70;;;22.30;51.70;;;;;;5043797;28;20465;-80
2021/09/10 07:36:52;;;;;;;9.53;8.60;;;22.40;52.00;;;;;;5045454;28;20820;-79
2021/09/10 07:39:20;;;;;;;9.20;8.40;;;22.30;51.90;;;;;;5038944;28;21042;-78
2021/09/10 07:41:48;;;;;;;9.23;8.33;;;22.40;52.00;;;;;;5034797;28;20460;-79
2021/09/10 07:44:17;;;;;;;8.83;8.13;;;22.30;51.90;;;;;;5033588;28;20509;-79
2021/09/10 07:46:46;;;;;;;8.43;7.73;;;22.30;52.20;;;;;;5035040;28;20463;-78
2021/09/10 07:49:13;;;;;;;8.87;7.77;;;22.50;51.80;;;;;;5033601;28;21038;-78
2021/09/10 07:51:42;;;;;;;9.27;8.40;;;22.70;51.40;;;;;;5035263;28;20824;-78
2021/09/10 07:54:09;;;;;;;9.50;8.57;;;22.90;51.60;;;;;;5034346;28;20464;-77
2021/09/10 07:56:36;;;;;;;9.23;8.30;;;22.90;51.60;;;;;;5034686;28;20490;-78
2021/09/10 07:59:04;;;;;;;9.50;8.23;;;22.90;51.60;;;;;;5035262;28;20536;-78
2021/09/10 08:01:32;;;;;;;9.27;8.27;;;22.80;51.50;;;;;;5036130;28;20461;-78
2021/09/10 08:03:59;;;;;;;8.97;8.20;;;22.90;51.60;;;;;;5035923;28;20495;-78
2021/09/10 08:06:26;;;;;;;8.67;7.90;;;23.00;51.70;;;;;;5021381;28;20549;-78
2021/09/10 08:08:53;;;;;;;8.80;8.00;;;23.10;51.80;;;;;;5036975;28;21007;-78
2021/09/10 08:11:20;;;;;;;8.40;7.67;;;23.20;51.80;;;;;;5039748;28;20412;-78
2021/09/10 08:13:47;;;;;;;9.63;7.47;;;23.10;52.50;;;;;;5051589;28;20412;-80
2021/09/10 08:16:14;;;;;;;8.13;7.43;;;23.00;51.70;;;;;;5058021;28;20439;-79
2021/09/10 08:18:42;;;;;;;10.13;7.83;;;22.90;51.60;;;;;;5057662;28;20472;-78
2021/09/10 08:21:09;;;;;;;10.70;7.60;;;22.80;52.20;;;;;;5054650;28;20423;-79
2021/09/10 08:23:36;;;;;;;8.77;7.83;;;22.80;52.60;;;;;;5037213;28;20572;-80
2021/09/10 08:26:03;;;;;;;11.83;8.00;;;22.90;52.60;;;;;;5036213;28;20424;-79
2021/09/10 08:28:30;;;;;;;8.07;7.30;;;22.80;52.70;;;;;;5034579;28;20618;-78
2021/09/10 08:30:57;;;;;;;9.30;7.20;;;22.80;53.10;;;;;;5034083;28;20434;-78
2021/09/10 08:33:24;;;;;;;8.33;7.63;;;23.00;52.90;;;;;;5033669;28;20497;-79
2021/09/10 08:35:52;;;;;;;7.93;7.23;;;23.30;51.90;;;;;;5021451;28;20954;-79
2021/09/10 08:38:19;;;;;;;9.60;6.37;;;23.80;51.90;;;;;;5018703;28;20462;-79
2021/09/10 08:40:47;;;;;;;8.47;7.67;;;24.20;50.00;;;;;;5036382;28;20525;-79
2021/09/10 08:43:14;;;;;;;7.63;7.00;;;24.20;49.50;;;;;;5033846;28;20432;-79
2021/09/10 08:45:42;;;;;;;9.03;6.60;;;24.30;49.30;;;;;;5034151;28;20831;-79
2021/09/10 08:48:11;;;;;;;7.63;6.93;;;24.10;49.50;;;;;;5036891;28;20443;-78
2021/09/10 08:50:38;;;;;;;8.23;6.90;;;23.90;50.30;;;;;;5034690;28;20460;-78
2021/09/10 08:53:07;;;;;;;8.77;7.10;;;24.00;49.80;;;;;;5035529;28;20440;-78
2021/09/10 08:55:33;;;;;;;10.53;7.30;;;23.90;49.50;;;;;;5036404;28;20941;-78
2021/09/10 08:58:00;;;;;;;9.30;7.00;;;23.80;49.10;;;;;;5032880;28;20515;-79
2021/09/10 09:00:29;;;;;;;9.23;8.10;;;23.80;49.40;;;;;;5034666;28;20835;-78
2021/09/10 09:03:01;;;;;;;8.00;7.30;;;23.50;50.40;;;;;;5037830;28;20484;-77
2021/09/10 09:05:30;;;;;;;7.67;7.00;;;23.70;49.80;;;;;;5035878;28;20483;-79
2021/09/10 09:08:07;;;;;;;7.17;6.57;;;23.80;49.50;;;;;;5034539;28;20456;-78
2021/09/10 09:10:49;;;;;;;8.30;7.50;;;24.00;49.40;;;;;;5017337;28;20938;-76
2021/09/10 09:13:17;;;;;;;7.80;7.00;;;24.20;49.10;;;;;;5016529;28;20981;-77
2021/09/10 09:15:45;;;;;;;8.77;8.07;;;24.30;48.30;;;;;;5016916;28;20541;-77
2021/09/10 09:18:12;;;;;;;13.10;7.87;;;24.10;48.40;;;;;;5033714;28;20461;-77
2021/09/10 09:20:39;;;;;;;8.40;7.57;;;24.00;49.60;;;;;;5037795;28;20874;-77
2021/09/10 09:23:10;;;;;;;8.73;7.80;;;23.80;49.90;;;;;;5040088;28;20449;-77
2021/09/10 09:25:40;;;;;;;10.53;7.67;;;24.00;49.70;;;;;;5045638;28;20493;-76
2021/09/10 09:28:22;;;;;;;8.70;6.70;;;24.30;48.50;;;;;;5055500;28;20505;-76
2021/09/10 09:30:52;;;;;;;9.03;7.07;;;24.30;48.10;;;;;;5055090;28;20416;-76
2021/09/10 09:33:19;;;;;;;7.63;7.03;;;24.20;48.60;;;;;;5052199;28;20446;-75
2021/09/10 09:35:50;;;;;;;8.10;7.40;;;24.30;48.40;;;;;;5044427;28;20811;-76
2021/09/10 09:38:21;;;;;;;8.10;7.30;;;24.50;48.30;;;;;;5031461;28;20551;-77
2021/09/10 09:40:52;;;;;;;7.47;6.90;;;24.70;48.00;;;;;;5035270;28;20439;-77
2021/09/10 09:43:20;;;;;;;8.43;7.63;;;24.60;48.50;;;;;;5038915;28;20507;-77
2021/09/10 09:45:49;;;;;;;7.50;6.87;;;24.70;48.00;;;;;;5037748;28;20829;-77
2021/09/10 09:48:17;;;;;;;8.27;7.57;;;24.90;48.10;;;;;;5041014;28;20462;-77
2021/09/10 09:50:46;;;;;;;7.67;6.97;;;25.10;47.80;;;;;;5038895;28;20443;-76
2021/09/10 09:53:13;;;;;;;7.70;7.00;;;25.00;47.30;;;;;;5045587;28;20459;-76
2021/09/10 09:55:43;;;;;;;7.23;6.60;;;24.90;47.00;;;;;;5038946;28;20432;-76
2021/09/10 09:58:10;;;;;;;8.03;7.27;;;24.90;47.70;;;;;;5052278;28;20393;-73
2021/09/10 10:00:39;;;;;;;8.07;7.37;;;25.00;47.30;;;;;;5059765;28;20512;-75
2021/09/10 10:03:06;;;;;;;8.30;7.20;;;24.90;47.30;;;;;;5054830;28;20433;-75
2021/09/10 10:05:43;;;;;;;8.60;7.87;;;24.80;47.90;;;;;;5050664;28;20475;-77
2021/09/10 10:08:14;;;;;;;8.77;7.97;;;24.70;48.10;;;;;;5044973;28;20468;-78
2021/09/10 10:10:46;;;;;;;7.90;7.20;;;24.60;48.30;;;;;;5044257;28;20453;-77
2021/09/10 10:13:15;;;;;;;8.07;7.37;;;24.60;48.20;;;;;;5045383;28;20450;-77
2021/09/10 10:15:45;;;;;;;7.63;6.70;;;24.80;47.70;;;;;;5035634;28;20557;-76
2021/09/10 10:18:12;;;;;;;8.73;8.03;;;24.70;47.10;;;;;;5033289;28;20476;-76
2021/09/10 10:20:53;;;;;;;8.53;7.67;;;24.80;46.50;;;;;;5016843;28;20505;-77
2021/09/10 10:23:55;;;;;;;7.30;6.70;;;24.70;46.30;;;;;;5028324;28;20458;-77
2021/09/10 10:26:35;;;;;;;7.60;6.90;;;24.70;46.60;;;;;;5032424;28;20539;-76
2021/09/10 10:29:20;;;;;;;7.93;7.30;;;24.60;46.30;;;;;;5042604;28;20477;-77
2021/09/10 10:32:05;;;;;;;8.00;7.13;;;24.80;46.40;;;;;;5043739;28;20500;-77
2021/09/10 10:34:34;;;;;;;8.27;7.43;;;25.10;45.80;;;;;;5041424;28;20503;-77
2021/09/10 10:37:02;;;;;;;6.80;6.30;;;25.30;44.40;;;;;;5039814;28;20780;-76
2021/09/10 10:39:32;;;;;;;7.07;6.50;;;25.40;43.80;;;;;;5043231;28;20488;-77
2021/09/10 10:42:03;;;;;;;14.33;6.63;;;25.30;44.80;;;;;;5036508;28;20541;-77
2021/09/10 10:45:00;;;;;;;7.90;6.67;;;25.50;43.80;;;;;;5037747;28;20436;-77
2021/09/10 10:47:34;;;;;;;6.90;6.40;;;25.70;44.90;;;;;;5037339;28;20433;-77
2021/09/10 10:50:02;;;;;;;7.67;6.97;;;25.60;45.00;;;;;;5039742;28;20517;-77
2021/09/10 10:52:32;;;;;;;8.20;7.43;;;25.20;45.30;;;;;;5043688;28;20458;-78
2021/09/10 10:55:19;;;;;;;7.53;6.93;;;25.00;47.80;;;;;;5042852;28;20421;-77
2021/09/10 10:57:48;;;;;;;7.30;6.70;;;25.10;47.20;;;;;;5037341;28;20759;-77
2021/09/10 11:00:48;;;;;;;7.60;7.00;;;25.20;46.00;;;;;;5036615;28;20479;-77
2021/09/10 11:03:35;;;;;;;9.60;7.10;;;25.40;45.60;;;;;;5037432;28;20520;-78
2021/09/10 11:06:27;;;;;;;8.13;7.00;;;25.60;44.50;;;;;;5045671;28;20456;-75
2021/09/10 11:08:54;;;;;;;7.90;7.20;;;25.60;44.40;;;;;;5052649;28;20523;-78
2021/09/10 11:11:21;;;;;;;7.80;7.07;;;25.70;45.00;;;;;;5025761;28;20441;-77
2021/09/10 11:13:50;;;;;;;8.10;7.40;;;25.80;45.20;;;;;;5042375;28;20478;-77
2021/09/10 11:16:31;;;;;;;8.60;7.80;;;25.80;45.10;;;;;;5051305;28;20438;-77
2021/09/10 11:18:58;;;;;;;7.83;7.13;;;25.90;44.60;;;;;;5038899;28;21004;-77
2021/09/10 11:21:32;;;;;;;7.90;7.30;;;26.00;44.20;;;;;;5032515;28;20457;-78
2021/09/10 11:24:11;;;;;;;8.93;8.13;;;25.90;44.10;;;;;;5042350;28;20512;-77
2021/09/10 11:26:39;;;;;;;8.57;7.70;;;25.50;45.40;;;;;;5045294;28;20460;-78
2021/09/10 11:29:12;;;;;;;9.33;8.40;;;25.30;46.00;;;;;;5041775;28;20456;-80
2021/09/10 11:31:39;;;;;;;8.33;7.70;;;25.30;45.90;;;;;;5015708;28;20417;-76
2021/09/10 11:34:06;;;;;;;10.60;6.93;;;25.20;46.50;;;;;;5005241;28;91438;-80
2021/09/10 11:36:33;;;;;;;8.50;7.70;;;25.50;45.60;;;;;;5002018;28;20433;-77
2021/09/10 11:39:06;;;;;;;8.63;7.73;;;25.70;44.90;;;;;;4989480;28;20557;-76
2021/09/10 11:41:34;;;;;;;8.70;7.57;;;26.00;44.20;;;;;;5000965;28;20523;-78
2021/09/10 11:44:14;;;;;;;10.60;7.30;;;26.10;44.20;;;;;;4998242;28;20462;-77
2021/09/10 11:46:41;;;;;;;8.80;7.90;;;26.30;44.40;;;;;;4997200;28;20578;-78
2021/09/10 11:49:09;;;;;;;8.73;7.73;;;26.40;44.50;;;;;;5007984;28;21016;-77
2021/09/10 11:51:53;;;;;;;8.10;6.87;;;26.40;44.50;;;;;;5006901;28;20454;-78
2021/09/10 11:54:21;;;;;;;8.63;7.93;;;26.80;43.80;;;;;;4993012;28;20510;-77
2021/09/10 11:56:49;;;;;;;8.00;7.20;;;26.90;43.00;;;;;;4998538;28;20851;-77
2021/09/10 11:59:20;;;;;;;8.60;7.90;;;26.30;44.40;;;;;;4999687;28;20673;-77
2021/09/10 12:01:47;;;;;;;8.83;8.00;;;26.30;44.40;;;;;;4997066;28;20485;-77
2021/09/10 12:04:29;;;;;;;9.37;8.57;;;26.60;44.60;;;;;;5003115;28;20522;-78
2021/09/10 12:06:58;;;;;;;8.50;7.80;;;26.50;44.50;;;;;;4979365;28;20458;-78
2021/09/10 12:09:28;;;;;;;9.93;7.93;;;26.50;44.50;;;;;;4979486;28;20538;-76
2021/09/10 12:12:06;;;;;;;9.23;8.37;;;26.80;44.70;;;;;;4976170;28;20826;-76
2021/09/10 12:14:39;;;;;;;8.63;7.93;;;26.70;44.70;;;;;;4977381;28;20438;-78
2021/09/10 12:17:08;;;;;;;10.00;8.23;;;26.60;44.60;;;;;;4983675;28;20457;-74
2021/09/10 12:19:49;;;;;;;8.60;7.90;;;26.30;46.30;;;;;;4979605;28;20499;-74
2021/09/10 12:22:31;;;;;;;8.50;7.80;;;26.50;45.60;;;;;;4995738;28;20456;-73
2021/09/10 12:25:23;;;;;;;10.93;7.73;;;26.60;44.60;;;;;;5009730;28;20482;-75
2021/09/10 12:27:52;;;;;;;8.70;7.80;;;26.30;44.40;;;;;;4996275;28;20462;-75
2021/09/10 12:30:22;;;;;;;8.47;7.67;;;26.10;44.60;;;;;;5010368;28;20493;-76
2021/09/10 12:32:49;;;;;;;8.63;7.90;;;25.90;45.70;;;;;;4987969;28;20498;-75
2021/09/10 12:35:17;;;;;;;7.80;7.20;;;25.80;47.30;;;;;;4997754;28;20446;-75
2021/09/10 12:37:52;;;;;;;8.77;8.07;;;25.70;47.70;;;;;;4982720;28;20445;-74
2021/09/10 12:40:20;;;;;;;9.10;8.40;;;25.50;48.20;;;;;;5000456;28;20441;-74
2021/09/10 12:42:48;;;;;;;8.57;7.87;;;25.30;49.30;;;;;;5013625;28;20517;-74
2021/09/10 12:45:15;;;;;;;8.33;7.53;;;25.40;49.00;;;;;;4994574;28;20982;-75
2021/09/10 12:47:43;;;;;;;9.47;8.67;;;25.50;48.40;;;;;;4993844;28;20555;-74